AirNav   Pilot Hours Calculator
 
 1169 users online  

T48 Poetry Flying Ranch Airport
Rockwall, Texas, USA

GOING TO ROCKWALL?


FAA INFORMATION EFFECTIVE 20 MAY 2021

Location

FAA Identifier: T48
Lat/Long: 32-52-05.2400N 096-13-08.9100W
32-52.087333N 096-13.148500W
32.8681222,-96.2191417
(estimated)
Elevation: 500 ft. / 152 m (estimated)
Variation: 06E (1985)
From city: 15 miles SE of ROCKWALL, TX
Time zone: UTC -5 (UTC -6 during Standard Time)
Zip code: 75160

Airport Operations

Airport use: Open to the public
Activation date: 11/1976
Control tower: no
ARTCC: FORT WORTH CENTER
FSS: FORT WORTH FLIGHT SERVICE STATION
NOTAMs facility: FTW (NOTAM-D service available)
Attendance: UNATNDD
FOR ARPT ATTENDANT CALL 214-704-1593
Wind indicator: yes
Segmented circle: no

Airport Communications

CTAF/UNICOM: 123.0
WX ASOS at TRL (10 nm S): 119.275 (972-551-1334)
WX AWOS-3 at F46 (12 nm W): 121.25 (972-772-6699)
WX AWOS-3 at GVT (14 nm NE): 133.425 (903-455-7703)
WX AWOS-3 at HQZ (17 nm SW): 118.175 (972-222-7631)

Nearby radio navigation aids

VOR radial/distance  VOR name  Freq  Var
CVEr086/34.5COWBOY VOR/DME116.2006E
SLRr232/39.4SULPHUR SPRINGS VOR/DME109.0008E

 
NDB name  Hdg/Dist  Freq  Var  ID
TRAVIS007/6.726006EAVZ .- ...- --..
MESQUITE074/16.024803EPQF .--. --.- ..-.

Airport Services

Parking: hangars and tiedowns
Bottled oxygen: NONE
Bulk oxygen: NONE

Runway Information

Runway 13/31

Dimensions: 3344 x 50 ft. / 1019 x 15 m
Surface: turf, in good condition
RUNWAY 13  RUNWAY 31
Traffic pattern: leftleft
Displaced threshold: 335 ft.336 ft.
Obstructions: 45 ft. trees, 170 ft. from runway, 110 ft. right of centerline, 3:1 slope to clear
APCH RATIO 5:1 TO DSPLCD THLD; 13 FT BLDG 67 FT 102 FT LEFT.
4 ft. fence, 125 ft. from runway, 31:1 slope to clear
APCH SLOPE 50:1 TO DSPLCD THLD.

Airport Ownership and Management from official FAA records

Ownership: Privately-owned
Owner: SUE JAFFE
10053 CO. ROAD 2322
TERRELL, TX 75160
Phone 972-563-3765
Manager: MIKE JAFFE
10053 CO. ROAD 2322
TERRELL, TX 75160
Phone 214-704-1593

Airport Operational Statistics

Aircraft based on the field: 5
Single engine airplanes: 5
    
Aircraft operations: avg 21/week *
55% transient general aviation
45% local general aviation
* for 12-month period ending 31 December 2018

Additional Remarks

WILDLIFE ON AND INVOF RY.
FOR CD CTC FORT WORTH ARTCC AT 817-858-7584.

Instrument Procedures

There are no published instrument procedures at T48.

Some nearby airports with instrument procedures:

KTRL - Terrell Municipal Airport (10 nm S)
7F3 - Caddo Mills Municipal Airport (10 nm N)
F46 - Ralph M Hall/Rockwall Municipal Airport (12 nm W)
KGVT - Majors Airport (14 nm NE)
KHQZ - Mesquite Metro Airport (17 nm SW)
 
Loc | Ops | Rwys | IFR | FBO | Links
Com | Nav | Svcs | Stats | Notes

City of Fort Worth
 
Area around T48 (Poetry Flying Ranch Airport)
 
Road maps at: MapQuest Bing Google
 
Aerial photo
WARNING: Photo may not be current or correct
Aerial photo of T48 (Poetry Flying Ranch Airport)
Do you have a better or more recent aerial photo of Poetry Flying Ranch Airport that you would like to share? If so, please send us your photo.

 
Sectional chart

 
Airport distance calculator
Flying to Poetry Flying Ranch Airport? Find the distance to fly.

From to T48

Sunrise and sunset
Times for 14-Jun-2021
 Local
(UTC-5)
 Zulu
(UTC)
Morning civil twilight05:4810:48
Sunrise06:1711:17
Sunset20:3301:33
Evening civil twilight21:0202:02

Current date and time
Zulu (UTC)  14-Jun-2021 22:58:29
Local (UTC-5)  14-Jun-2021 17:58:29
 
METAR
KTRL 
9nm S 
142253Z AUTO 04008KT 10SM -RA CLR 34/21 A2994 RMK AO2 SLP130 T03390211 PNO
KF46 
12nm W 
142235Z AUTO 05006KT 10SM CLR 34/20 A2995 RMK AO2 T03380202
KGVT 
14nm NE 
142235Z AUTO 06007KT 10SM CLR 34/21 A2994 RMK AO2 TSNO T03370212
KHQZ 
17nm SW 
142250Z 07005KT 10SM SCT055 34/22 A2994
TAF
KDAL 
32nm W 
142109Z 1421/1518 06005KT P6SM VCTS SCT040CB FM142300 04004KT P6SM SCT180
NOTAMs
Click for the latest NOTAMs
NOTAMs are issued by the DoD/FAA and will open in a separate window not controlled by AirNav.

 

 
 

Would you like to see your business listed on this page?

 If your business provides an interesting product or service to pilots, flight crews, aircraft, or users of the Poetry Flying Ranch Airport, you should consider listing it here.  To start the listing process, click on the button below
 
Add a business
 

Other Pages about Poetry Flying Ranch Airport

www.efc.dcccd.edu/...
 
Update a link
 
Copyright © AirNav, LLC. All rights reserved. Privacy Policy  Contact